createdAt,value
2023-04-18T00:01:45.722Z,24.50
2023-04-18T00:04:13.856Z,23.63
2023-04-18T00:06:47.310Z,25.23
2023-04-18T00:09:14.047Z,27.58
2023-04-18T00:11:40.852Z,22.63
2023-04-18T00:14:08.523Z,29.67
2023-04-18T00:16:36.182Z,21.58
2023-04-18T00:19:04.494Z,18.15
2023-04-18T00:21:32.037Z,22.00
2023-04-18T00:23:58.758Z,23.23
2023-04-18T00:26:26.472Z,22.38
2023-04-18T00:28:53.144Z,23.10
2023-04-18T00:31:19.915Z,15.48
2023-04-18T00:33:46.631Z,20.77
2023-04-18T00:36:13.351Z,18.95
2023-04-18T00:38:40.009Z,17.10
2023-04-18T00:41:06.748Z,18.27
2023-04-18T00:43:35.049Z,20.02
2023-04-18T00:46:01.793Z,18.52
2023-04-18T00:48:29.589Z,14.90
2023-04-18T00:50:57.067Z,21.85
2023-04-18T00:53:24.106Z,19.33
2023-04-18T00:55:51.338Z,19.90
2023-04-18T00:58:18.077Z,20.13
2023-04-18T01:00:44.767Z,17.73
2023-04-18T01:03:14.399Z,16.10
2023-04-18T01:05:42.361Z,20.52
2023-04-18T01:08:09.173Z,14.57
2023-04-18T01:10:36.143Z,14.18
2023-04-18T01:13:20.185Z,18.05
2023-04-18T01:15:49.134Z,16.67
2023-04-18T01:18:16.876Z,15.68
2023-04-18T01:20:48.580Z,16.52
2023-04-18T01:23:17.873Z,17.95
2023-04-18T01:25:45.968Z,13.18
2023-04-18T01:28:14.548Z,13.10
2023-04-18T01:30:41.543Z,17.08
2023-04-18T01:33:08.201Z,15.90
2023-04-18T01:35:35.112Z,15.93
2023-04-18T01:38:01.922Z,11.70
2023-04-18T01:40:30.037Z,11.63
2023-04-18T01:42:56.792Z,13.68
2023-04-18T01:45:23.641Z,12.77
2023-04-18T01:47:50.401Z,13.98
2023-04-18T01:50:17.253Z,13.30
2023-04-18T01:52:43.939Z,14.32
2023-04-18T01:55:10.801Z,16.50
2023-04-18T01:57:38.849Z,13.80
2023-04-18T02:00:06.677Z,11.77
2023-04-18T02:02:34.451Z,13.02
2023-04-18T02:05:01.415Z,14.45
2023-04-18T02:07:28.053Z,11.38
2023-04-18T02:09:55.108Z,11.48
2023-04-18T02:12:21.814Z,10.55
2023-04-18T02:14:54.690Z,12.80
2023-04-18T02:17:23.596Z,18.90
2023-04-18T02:19:53.645Z,14.45
2023-04-18T02:22:20.355Z,20.90
2023-04-18T02:24:47.019Z,13.98
2023-04-18T02:27:13.669Z,12.55
2023-04-18T02:29:40.307Z,12.75
2023-04-18T02:32:07.289Z,13.55
2023-04-18T02:34:34.129Z,12.18
2023-04-18T02:37:00.818Z,16.88
2023-04-18T02:39:27.634Z,22.92
2023-04-18T02:41:55.400Z,14.88
2023-04-18T02:44:22.032Z,16.42
2023-04-18T02:46:48.672Z,13.00
2023-04-18T02:49:15.376Z,13.60
2023-04-18T02:51:42.093Z,14.27
2023-04-18T02:54:08.752Z,16.85
2023-04-18T02:56:39.911Z,14.98
2023-04-18T02:59:07.228Z,15.25
2023-04-18T03:01:34.455Z,19.25
2023-04-18T03:04:02.383Z,13.40
2023-04-18T03:06:29.472Z,15.40
2023-04-18T03:08:56.218Z,17.27
2023-04-18T03:11:23.212Z,20.38
2023-04-18T03:13:49.960Z,18.00
2023-04-18T03:16:16.998Z,18.55
2023-04-18T03:18:43.815Z,14.85
2023-04-18T03:21:11.402Z,17.13
2023-04-18T03:23:38.293Z,15.82
2023-04-18T03:26:06.872Z,15.30
2023-04-18T03:28:33.798Z,17.33
2023-04-18T03:31:01.001Z,16.27
2023-04-18T03:33:28.817Z,16.42
2023-04-18T03:35:55.610Z,17.65
2023-04-18T03:38:22.484Z,14.95
2023-04-18T03:40:49.293Z,18.80
2023-04-18T03:43:16.192Z,14.30
2023-04-18T03:45:44.253Z,18.52
2023-04-18T03:48:11.024Z,15.75
2023-04-18T03:50:37.773Z,19.17
2023-04-18T03:53:04.538Z,15.77
2023-04-18T03:55:31.387Z,19.15
2023-04-18T03:57:59.190Z,20.55
2023-04-18T04:00:26.281Z,12.95
2023-04-18T04:02:53.154Z,19.98
2023-04-18T04:05:19.884Z,25.08
2023-04-18T04:07:46.748Z,17.75
2023-04-18T04:10:13.562Z,16.27
2023-04-18T04:12:40.519Z,19.15
2023-04-18T04:15:07.641Z,19.08
2023-04-18T04:17:34.324Z,15.55
2023-04-18T04:20:01.749Z,22.15
2023-04-18T04:22:28.436Z,16.27
2023-04-18T04:24:57.802Z,19.25
2023-04-18T04:27:25.103Z,25.13
2023-04-18T04:29:52.323Z,22.35
2023-04-18T04:32:20.375Z,23.27
2023-04-18T04:34:47.207Z,19.48
2023-04-18T04:37:19.677Z,12.27
2023-04-18T04:39:47.398Z,18.50
2023-04-18T04:42:14.208Z,18.17
2023-04-18T04:44:44.025Z,18.67
2023-04-18T04:47:10.783Z,21.50
2023-04-18T04:49:37.409Z,21.25
2023-04-18T04:52:04.260Z,18.65
2023-04-18T04:54:30.921Z,19.27
2023-04-18T04:56:57.810Z,18.08
2023-04-18T04:59:24.491Z,20.45
2023-04-18T05:01:51.582Z,18.55
2023-04-18T05:04:18.755Z,15.55
2023-04-18T05:06:46.130Z,19.05
2023-04-18T05:09:13.445Z,14.93
2023-04-18T05:11:40.299Z,18.75
2023-04-18T05:14:07.586Z,19.95
2023-04-18T05:16:34.355Z,24.52
2023-04-18T05:19:01.158Z,15.63
2023-04-18T05:21:28.853Z,16.10
2023-04-18T05:23:56.295Z,17.98
2023-04-18T05:26:23.291Z,21.13
2023-04-18T05:28:50.053Z,20.15
2023-04-18T05:31:16.931Z,16.70
2023-04-18T05:33:43.694Z,17.25
2023-04-18T05:36:10.482Z,17.92
2023-04-18T05:38:37.241Z,17.67
2023-04-18T05:41:04.035Z,16.75
2023-04-18T05:43:30.835Z,18.27
2023-04-18T05:45:57.956Z,22.65
2023-04-18T05:48:25.849Z,20.55
2023-04-18T05:50:52.511Z,17.13
2023-04-18T05:53:19.245Z,14.90
2023-04-18T05:55:48.619Z,17.67
2023-04-18T05:58:15.775Z,16.63
2023-04-18T06:00:43.344Z,22.42
2023-04-18T06:03:11.253Z,15.80
2023-04-18T06:05:38.616Z,15.55
2023-04-18T06:08:05.987Z,16.77
2023-04-18T06:10:33.079Z,13.60
2023-04-18T06:12:59.752Z,21.98
2023-04-18T06:15:26.463Z,18.80
2023-04-18T06:17:53.241Z,18.55
2023-04-18T06:20:20.032Z,17.73
2023-04-18T06:22:46.683Z,22.35
2023-04-18T06:25:13.504Z,17.92
2023-04-18T06:27:40.275Z,19.02
2023-04-18T06:30:08.140Z,20.85
2023-04-18T06:32:34.911Z,17.95
2023-04-18T06:35:02.246Z,14.38
2023-04-18T06:37:29.320Z,17.65
2023-04-18T06:39:56.149Z,18.80
2023-04-18T06:42:23.027Z,18.00
2023-04-18T06:44:49.981Z,20.83
2023-04-18T06:47:16.968Z,18.38
2023-04-18T06:49:43.701Z,15.45
2023-04-18T06:52:10.476Z,14.55
2023-04-18T06:54:37.165Z,14.70
2023-04-18T06:57:03.989Z,16.33
2023-04-18T06:59:30.786Z,14.70
2023-04-18T07:01:57.493Z,14.15
2023-04-18T07:04:24.375Z,18.10
2023-04-18T07:06:51.861Z,16.58
2023-04-18T07:09:18.654Z,14.98
2023-04-18T07:11:45.418Z,13.80
2023-04-18T07:14:12.462Z,14.07
2023-04-18T07:16:39.561Z,18.77
2023-04-18T07:19:06.744Z,14.02
2023-04-18T07:21:33.560Z,12.73
2023-04-18T07:24:00.589Z,14.52
2023-04-18T07:26:27.669Z,14.18
2023-04-18T07:28:54.342Z,17.23
2023-04-18T07:31:21.233Z,12.38
2023-04-18T07:33:47.908Z,13.90
2023-04-18T07:36:14.671Z,13.32
2023-04-18T07:38:41.439Z,12.40
2023-04-18T07:41:08.220Z,10.70
2023-04-18T07:43:35.921Z,11.60
2023-04-18T07:46:02.743Z,10.15
2023-04-18T07:48:29.476Z,11.98
2023-04-18T07:50:56.307Z,15.60
2023-04-18T07:53:23.097Z,11.70
2023-04-18T07:55:50.466Z,10.68
2023-04-18T07:58:17.681Z,11.05
2023-04-18T08:00:44.932Z,12.07
2023-04-18T08:03:12.831Z,10.90
2023-04-18T08:05:41.239Z,12.77
2023-04-18T08:08:09.623Z,10.30
2023-04-18T08:10:37.014Z,13.48
2023-04-18T08:13:04.393Z,9.98
2023-04-18T08:15:32.728Z,11.68
2023-04-18T08:18:00.395Z,8.40
2023-04-18T08:20:27.314Z,11.23
2023-04-18T08:23:06.367Z,9.18
2023-04-18T08:28:04.060Z,10.80
2023-04-18T08:30:31.253Z,11.02
2023-04-18T08:32:59.342Z,9.38
2023-04-18T08:35:26.125Z,9.65
2023-04-18T08:37:52.886Z,9.73
2023-04-18T08:40:20.781Z,7.72
2023-04-18T08:42:47.868Z,7.70
2023-04-18T08:45:14.827Z,9.68
2023-04-18T08:47:42.289Z,8.35
2023-04-18T08:50:10.084Z,7.03
2023-04-18T08:52:39.325Z,9.52
2023-04-18T08:55:07.594Z,7.95
2023-04-18T08:57:36.373Z,7.18
2023-04-18T09:00:10.455Z,8.70
2023-04-18T09:02:44.576Z,7.70
2023-04-18T09:05:16.573Z,5.45
2023-04-18T09:07:43.256Z,6.55
2023-04-18T09:10:10.485Z,10.48
2023-04-18T09:12:50.542Z,8.45
2023-04-18T09:15:20.484Z,7.45
2023-04-18T09:17:53.805Z,7.13
2023-04-18T09:20:34.380Z,8.18
2023-04-18T09:25:43.239Z,9.93
2023-04-18T09:28:29.307Z,8.27
2023-04-18T09:31:07.506Z,10.18
2023-04-18T09:33:34.306Z,7.57
2023-04-18T09:36:21.563Z,8.23
2023-04-18T09:38:50.086Z,12.15
2023-04-18T09:41:20.717Z,12.98
2023-04-18T09:43:48.141Z,11.60
2023-04-18T09:46:15.329Z,9.80
2023-04-18T09:48:42.144Z,7.40
2023-04-18T09:51:16.842Z,10.00
2023-04-18T09:53:44.858Z,9.80
2023-04-18T09:56:26.061Z,9.05
2023-04-18T09:59:00.986Z,9.55
2023-04-18T10:01:28.867Z,7.40
2023-04-18T10:03:57.256Z,9.70
2023-04-18T10:06:27.416Z,9.60
2023-04-18T10:08:55.095Z,7.78
2023-04-18T10:11:23.673Z,7.55
2023-04-18T10:13:55.757Z,8.98
2023-04-18T10:16:22.659Z,8.73
2023-04-18T10:18:51.109Z,10.45
2023-04-18T10:21:18.031Z,11.00
2023-04-18T10:23:48.697Z,8.82
2023-04-18T10:26:16.098Z,8.68
2023-04-18T10:28:53.776Z,9.95
2023-04-18T10:31:28.345Z,10.25
2023-04-18T10:34:05.423Z,10.75
2023-04-18T10:36:33.303Z,11.68
2023-04-18T10:39:21.816Z,9.60
2023-04-18T10:41:51.154Z,10.27
2023-04-18T10:44:23.535Z,8.80
2023-04-18T10:46:53.452Z,13.15
2023-04-18T10:49:26.855Z,8.47
2023-04-18T10:51:58.772Z,8.70
2023-04-18T10:54:50.929Z,9.23
2023-04-18T10:57:17.773Z,7.63
2023-04-18T10:59:49.998Z,8.32
2023-04-18T11:02:20.710Z,6.40
2023-04-18T11:04:55.147Z,9.18
2023-04-18T11:07:39.384Z,8.07
2023-04-18T11:10:07.581Z,6.97
2023-04-18T11:12:36.697Z,8.27
2023-04-18T11:15:11.224Z,9.35
2023-04-18T11:17:40.177Z,8.25
2023-04-18T11:20:10.968Z,8.35
2023-04-18T11:23:03.775Z,7.32
2023-04-18T11:25:34.428Z,10.40
2023-04-18T11:28:03.187Z,8.18
2023-04-18T11:30:41.223Z,9.18
2023-04-18T11:33:09.034Z,8.13
2023-04-18T11:35:40.118Z,8.35
2023-04-18T11:38:08.299Z,11.30
2023-04-18T11:40:36.506Z,12.50
2023-04-18T11:43:06.058Z,11.27
2023-04-18T11:45:33.445Z,10.53
2023-04-18T11:48:00.958Z,8.93
2023-04-18T11:50:27.952Z,11.93
2023-04-18T11:52:56.486Z,10.82
2023-04-18T11:55:25.143Z,10.70
2023-04-18T11:57:56.952Z,9.57
2023-04-18T12:00:40.069Z,11.73
2023-04-18T12:03:15.676Z,9.30
2023-04-18T12:05:43.157Z,12.48
2023-04-18T12:08:13.313Z,12.00
2023-04-18T12:10:47.010Z,12.30
2023-04-18T12:13:13.998Z,13.02
2023-04-18T12:15:44.564Z,12.38
2023-04-18T12:18:13.122Z,11.10
2023-04-18T12:20:46.363Z,12.82
2023-04-18T12:23:48.554Z,11.20
2023-04-18T12:26:22.458Z,10.45
2023-04-18T12:28:53.756Z,11.88
2023-04-18T12:31:21.632Z,13.48
2023-04-18T12:33:48.382Z,11.40
2023-04-18T12:36:17.117Z,9.32
2023-04-18T12:38:45.726Z,11.10
2023-04-18T12:41:13.106Z,12.25
2023-04-18T12:43:39.758Z,11.55
2023-04-18T12:46:06.704Z,14.15
2023-04-18T12:48:33.392Z,12.75
2023-04-18T12:51:00.165Z,14.48
2023-04-18T12:53:26.883Z,15.20
2023-04-18T12:55:53.641Z,19.70
2023-04-18T12:58:20.795Z,14.13
2023-04-18T13:00:47.461Z,15.95
2023-04-18T13:03:14.602Z,13.00
2023-04-18T13:05:41.512Z,14.52
2023-04-18T13:08:16.400Z,14.43
2023-04-18T13:10:44.839Z,14.52
2023-04-18T13:13:11.774Z,13.27
2023-04-18T13:15:38.538Z,15.75
2023-04-18T13:18:06.731Z,13.57
2023-04-18T13:20:34.210Z,18.42
2023-04-18T13:23:03.062Z,15.63
2023-04-18T13:25:29.758Z,14.48
2023-04-18T13:27:58.522Z,17.42
2023-04-18T13:30:25.535Z,15.57
2023-04-18T13:32:52.393Z,16.00
2023-04-18T13:35:20.733Z,15.15
2023-04-18T13:37:47.439Z,14.77
2023-04-18T13:40:14.593Z,11.75
2023-04-18T13:42:41.382Z,16.58
2023-04-18T13:45:08.447Z,16.67
2023-04-18T13:47:35.324Z,17.58
2023-04-18T13:50:02.079Z,15.40
2023-04-18T13:52:28.974Z,16.55
2023-04-18T13:54:55.659Z,17.45
2023-04-18T13:57:23.170Z,13.40
2023-04-18T13:59:49.917Z,14.43
2023-04-18T14:02:18.824Z,16.17
2023-04-18T14:04:46.444Z,17.50
2023-04-18T14:07:13.374Z,13.25
2023-04-18T14:09:40.046Z,16.10
2023-04-18T14:12:06.913Z,14.18
2023-04-18T14:14:33.719Z,13.77
2023-04-18T14:17:00.466Z,14.93
2023-04-18T14:19:27.628Z,18.20
2023-04-18T14:21:54.551Z,16.45
2023-04-18T14:24:21.701Z,13.00
2023-04-18T14:26:49.046Z,14.85
2023-04-18T14:29:15.919Z,15.65
2023-04-18T14:31:43.019Z,11.55
2023-04-18T14:34:09.851Z,20.27
2023-04-18T14:36:37.144Z,13.02
2023-04-18T14:39:04.704Z,14.30
2023-04-18T14:41:31.678Z,12.50
2023-04-18T14:43:59.520Z,18.08
2023-04-18T14:46:28.320Z,17.70
2023-04-18T14:48:57.054Z,17.25
2023-04-18T14:51:24.373Z,14.00
2023-04-18T14:53:51.454Z,13.00
2023-04-18T14:56:21.008Z,13.52
2023-04-18T14:58:48.012Z,13.23
2023-04-18T15:01:14.787Z,17.58
2023-04-18T15:03:41.745Z,13.90
2023-04-18T15:06:08.774Z,14.52
2023-04-18T15:08:36.654Z,13.77
2023-04-18T15:11:10.605Z,13.13
2023-04-18T15:13:37.290Z,13.18
2023-04-18T15:16:04.205Z,12.50
2023-04-18T15:18:31.032Z,12.98
2023-04-18T15:20:59.924Z,13.05
2023-04-18T15:23:27.521Z,14.85
2023-04-18T15:25:54.339Z,13.15
2023-04-18T15:28:21.224Z,15.38
2023-04-18T15:30:48.061Z,13.32
2023-04-18T15:33:15.717Z,11.10
2023-04-18T15:35:42.564Z,13.60
2023-04-18T15:38:09.397Z,11.57
2023-04-18T15:40:36.573Z,11.63
2023-04-18T15:43:04.077Z,12.40
2023-04-18T15:45:30.922Z,12.77
2023-04-18T15:48:00.447Z,11.50
2023-04-18T15:50:27.170Z,13.97
2023-04-18T15:52:54.147Z,14.90
2023-04-18T15:55:20.919Z,19.05
2023-04-18T15:57:47.751Z,14.75
2023-04-18T16:00:17.965Z,10.82
2023-04-18T16:02:45.861Z,12.07
2023-04-18T16:05:13.947Z,10.90
2023-04-18T16:07:41.427Z,11.85
2023-04-18T16:10:10.285Z,13.10
2023-04-18T16:12:38.113Z,15.18
2023-04-18T16:15:09.460Z,13.23
2023-04-18T16:17:37.252Z,10.93
2023-04-18T16:20:05.989Z,10.43
2023-04-18T16:22:32.783Z,10.95
2023-04-18T16:24:59.509Z,11.93
2023-04-18T16:27:26.279Z,11.15
2023-04-18T16:29:53.719Z,13.45
2023-04-18T16:32:20.926Z,13.35
2023-04-18T16:34:48.238Z,11.23
2023-04-18T16:37:14.894Z,12.20
2023-04-18T16:39:41.728Z,10.57
2023-04-18T16:42:08.405Z,12.73
2023-04-18T16:44:35.103Z,10.95
2023-04-18T16:47:02.030Z,10.50
2023-04-18T16:49:28.873Z,16.45
2023-04-18T16:51:55.651Z,13.70
2023-04-18T16:54:22.334Z,11.55
2023-04-18T16:56:49.165Z,12.93
2023-04-18T16:59:16.014Z,12.63
2023-04-18T17:01:42.747Z,9.95
2023-04-18T17:04:09.560Z,10.63
2023-04-18T17:06:36.468Z,9.70
2023-04-18T17:09:06.173Z,11.55
2023-04-18T17:11:38.832Z,9.73
2023-04-18T17:14:06.342Z,11.88
2023-04-18T17:16:33.053Z,9.75
2023-04-18T17:18:59.813Z,12.10
2023-04-18T17:21:27.335Z,12.32
2023-04-18T17:23:54.686Z,10.52
2023-04-18T17:26:22.609Z,9.55
2023-04-18T17:28:49.309Z,10.13
2023-04-18T17:31:16.235Z,13.10
2023-04-18T17:33:43.060Z,10.07
2023-04-18T17:36:09.884Z,10.57
2023-04-18T17:38:36.597Z,10.63
2023-04-18T17:41:04.668Z,14.88
2023-04-18T17:43:31.392Z,13.30
2023-04-18T17:46:00.166Z,16.17
2023-04-18T17:48:26.989Z,12.43
2023-04-18T17:50:53.682Z,13.85
2023-04-18T17:53:20.795Z,9.57
2023-04-18T17:55:50.426Z,9.88
2023-04-18T17:58:17.153Z,10.33
2023-04-18T18:00:44.069Z,13.13
2023-04-18T18:03:13.898Z,10.38
2023-04-18T18:05:41.794Z,10.60
2023-04-18T18:08:08.603Z,11.13
2023-04-18T18:10:35.421Z,11.40
2023-04-18T18:13:02.174Z,11.52
2023-04-18T18:15:29.265Z,12.60
2023-04-18T18:17:56.275Z,13.18
2023-04-18T18:20:23.294Z,13.80
2023-04-18T18:22:50.856Z,19.90
2023-04-18T18:25:17.708Z,34.85
2023-04-18T18:27:44.743Z,19.15
2023-04-18T18:30:11.610Z,20.55
2023-04-18T18:32:38.376Z,14.23
2023-04-18T18:35:06.109Z,12.05
2023-04-18T18:37:33.046Z,17.77
2023-04-18T18:39:59.931Z,15.45
2023-04-18T18:42:26.796Z,14.63
2023-04-18T18:44:53.469Z,9.98
2023-04-18T18:47:20.279Z,23.25
2023-04-18T18:49:48.655Z,19.10
2023-04-18T18:52:16.880Z,15.57
2023-04-18T18:54:43.571Z,16.35
2023-04-18T18:57:10.383Z,12.65
2023-04-18T18:59:37.074Z,12.45
2023-04-18T19:02:04.342Z,13.85
2023-04-18T19:04:31.417Z,11.35
2023-04-18T19:06:58.210Z,17.63
2023-04-18T19:09:25.030Z,16.08
2023-04-18T19:11:51.754Z,13.18
2023-04-18T19:14:18.462Z,12.27
2023-04-18T19:16:45.216Z,12.57
2023-04-18T19:19:12.250Z,15.20
2023-04-18T19:21:39.771Z,15.52
2023-04-18T19:24:06.760Z,16.02
2023-04-18T19:26:33.462Z,16.17
2023-04-18T19:29:00.393Z,14.60
2023-04-18T19:31:27.208Z,20.02
2023-04-18T19:33:53.907Z,11.43
2023-04-18T19:36:22.396Z,13.15
2023-04-18T19:38:49.115Z,11.63
2023-04-18T19:41:16.804Z,11.38
2023-04-18T19:43:43.676Z,10.50
2023-04-18T19:46:10.551Z,13.15
2023-04-18T19:48:37.495Z,9.75
2023-04-18T19:51:04.711Z,10.30
2023-04-18T19:53:31.637Z,10.05
2023-04-18T19:55:58.334Z,9.13
2023-04-18T19:58:48.921Z,11.43
2023-04-18T20:03:43.305Z,10.50
2023-04-18T20:06:10.400Z,10.68
2023-04-18T20:08:41.359Z,11.95
2023-04-18T20:11:13.247Z,9.48
2023-04-18T20:13:41.200Z,10.80
2023-04-18T20:16:09.451Z,8.90
2023-04-18T20:18:41.433Z,11.00
2023-04-18T20:21:09.938Z,13.32
2023-04-18T20:23:37.569Z,11.52
2023-04-18T20:26:04.561Z,13.85
2023-04-18T20:28:31.827Z,7.78
2023-04-18T20:30:58.970Z,12.18
2023-04-18T20:33:25.739Z,8.27
2023-04-18T20:35:54.600Z,9.48
2023-04-18T20:38:25.845Z,17.58
2023-04-18T20:40:53.246Z,12.20
2023-04-18T20:43:20.404Z,11.35
2023-04-18T20:45:51.691Z,10.07
2023-04-18T20:48:18.673Z,11.90
2023-04-18T20:50:50.964Z,8.82
2023-04-18T20:53:21.382Z,12.20
2023-04-18T20:55:48.607Z,8.13
2023-04-18T20:58:15.690Z,8.80
2023-04-18T21:00:44.892Z,8.15
2023-04-18T21:03:18.009Z,10.05
2023-04-18T21:05:45.564Z,8.43
2023-04-18T21:08:14.181Z,8.00
2023-04-18T21:10:41.884Z,16.15
2023-04-18T21:13:09.257Z,10.95
2023-04-18T21:15:38.087Z,11.00
2023-04-18T21:18:04.844Z,10.27
2023-04-18T21:20:31.648Z,12.40
2023-04-18T21:22:58.343Z,11.82
2023-04-18T21:25:27.158Z,10.43
2023-04-18T21:27:53.964Z,9.35
2023-04-18T21:30:21.158Z,9.70
2023-04-18T21:32:49.263Z,9.02
2023-04-18T21:35:19.389Z,12.38
2023-04-18T21:37:46.883Z,11.75
2023-04-18T21:40:14.332Z,7.05
2023-04-18T21:42:41.208Z,8.70
2023-04-18T21:45:11.810Z,12.55
2023-04-18T21:47:38.601Z,17.00
2023-04-18T21:50:06.044Z,9.52
2023-04-18T21:52:32.694Z,9.82
2023-04-18T21:54:59.397Z,8.77
2023-04-18T21:57:26.238Z,7.35
2023-04-18T21:59:54.095Z,7.50
2023-04-18T22:02:21.353Z,11.70
2023-04-18T22:04:48.292Z,9.57
2023-04-18T22:07:18.797Z,6.97
2023-04-18T22:12:14.091Z,9.50
2023-04-18T22:14:42.447Z,9.05
2023-04-18T22:17:09.243Z,9.73
2023-04-18T22:19:36.124Z,9.73
2023-04-18T22:22:02.781Z,9.40
2023-04-18T22:24:29.519Z,8.73
2023-04-18T22:26:56.593Z,9.45
2023-04-18T22:29:23.314Z,9.50
2023-04-18T22:31:50.028Z,10.32
2023-04-18T22:34:16.876Z,8.75
2023-04-18T22:36:45.500Z,8.95
2023-04-18T22:39:12.315Z,8.98
2023-04-18T22:41:38.999Z,13.15
2023-04-18T22:44:05.914Z,15.15
2023-04-18T22:46:32.995Z,8.50
2023-04-18T22:48:59.735Z,8.43
2023-04-18T22:51:28.550Z,12.32
2023-04-18T22:53:56.094Z,8.60
2023-04-18T22:56:22.992Z,9.70
2023-04-18T22:58:49.727Z,7.93
2023-04-18T23:01:16.575Z,7.93
2023-04-18T23:03:43.411Z,12.50
2023-04-18T23:06:10.288Z,8.95
2023-04-18T23:08:36.959Z,9.25
2023-04-18T23:11:03.614Z,11.18
2023-04-18T23:13:30.304Z,10.57
2023-04-18T23:15:57.064Z,10.52
2023-04-18T23:18:23.845Z,10.07
2023-04-18T23:20:50.732Z,13.70
2023-04-18T23:23:17.396Z,10.20
2023-04-18T23:25:44.206Z,9.98
2023-04-18T23:28:11.033Z,8.80
2023-04-18T23:30:37.868Z,11.25
2023-04-18T23:33:04.959Z,18.73
2023-04-18T23:35:31.685Z,10.27
2023-04-18T23:37:58.674Z,11.23
2023-04-18T23:40:25.746Z,10.57
2023-04-18T23:42:52.418Z,11.50
2023-04-18T23:45:19.253Z,10.60
2023-04-18T23:47:45.960Z,13.20
2023-04-18T23:50:12.794Z,8.68
2023-04-18T23:52:39.473Z,7.43
2023-04-18T23:55:06.802Z,15.90
2023-04-18T23:57:33.455Z,10.88
